Time;durP1;ratioP1;P1;durP2;ratioP2;P2;SDS_P1;SDS_P2;PMS_P1;PMS_P2;Temp;Humidity;BMP_temperature;BMP_pressure;BME280_temperature;BME280_humidity;BME280_pressure;Samples;Min_cycle;Max_cycle;Signal;HPM_P1;HPM_P2
2022/12/21 00:00:25;;;;;;;;;;;;;;;6.37;74.20;100954.53;5072842;28;19924;-57
2022/12/21 00:02:50;;;;;;;;;;;;;;;6.37;74.12;100947.56;5064703;28;19928;-60
2022/12/21 00:05:16;;;;;;;;;;;;;;;6.40;73.93;100943.97;5066334;28;20007;-61
2022/12/21 00:07:41;;;;;;;;;;;;;;;6.40;73.83;100949.19;5071930;28;19929;-60
2022/12/21 00:10:07;;;;;;;;;;;;;;;6.40;73.77;100957.91;5066703;28;19927;-59
2022/12/21 00:12:32;;;;;;;;;;;;;;;6.42;74.10;100959.63;5050141;28;19924;-59
2022/12/21 00:14:57;;;;;;;;;;;;;;;6.42;73.73;100960.44;5066616;28;19920;-60
2022/12/21 00:17:22;;;;;;;;;;;;;;;6.40;73.81;100951.81;5052509;28;20421;-60
2022/12/21 00:19:48;;;;;;;;;;;;;;;6.44;73.45;100947.31;5071901;28;19978;-60
2022/12/21 00:22:13;;;;;;;;;;;;;;;6.45;73.76;100943.78;5066592;28;19943;-61
2022/12/21 00:24:38;;;;;;;;;;;;;;;6.43;73.30;100945.63;5068053;28;19929;-60
2022/12/21 00:27:04;;;;;;;;;;;;;;;6.40;73.64;100946.59;5097983;22;19933;-56
2022/12/21 00:29:29;;;;;;;;;;;;;;;6.38;73.50;100937.94;5082292;28;20023;-57
2022/12/21 00:31:54;;;;;;;;;;;;;;;6.42;73.65;100943.94;5079947;28;19920;-59
2022/12/21 00:34:21;;;;;;;;;;;;;;;6.41;73.36;100940.44;5084880;28;19924;-56
2022/12/21 00:36:47;;;;;;;;;;;;;;;6.42;73.53;100938.69;5080848;28;20014;-55
2022/12/21 00:39:13;;;;;;;;;;;;;;;6.44;73.33;100932.50;5082125;28;19959;-55
2022/12/21 00:41:38;;;;;;;;;;;;;;;6.42;73.54;100939.53;5079907;28;19959;-58
2022/12/21 00:44:04;;;;;;;;;;;;;;;6.43;73.51;100935.19;5080228;28;19916;-60
2022/12/21 00:46:30;;;;;;;;;;;;;;;6.39;73.76;100919.59;5080439;28;19920;-60
2022/12/21 00:48:56;;;;;;;;;;;;;;;6.35;73.41;100910.16;5081197;28;19920;-57
2022/12/21 00:51:23;;;;;;;;;;;;;;;6.36;73.70;100911.88;5083123;28;19942;-57
2022/12/21 00:53:48;;;;;;;;;;;;;;;6.37;73.77;100918.81;5086397;28;19916;-55
2022/12/21 00:56:14;;;;;;;;;;;;;;;6.38;73.77;100912.66;5079809;28;19920;-57
2022/12/21 00:58:39;;;;;;;;;;;;;;;6.38;73.66;100917.91;5085633;28;19912;-57
2022/12/21 01:01:06;;;;;;;;;;;;;;;6.39;73.33;100914.38;5081664;28;19925;-57
2022/12/21 01:03:32;;;;;;;;;;;;;;;6.39;73.22;100909.16;5082317;28;20256;-57
2022/12/21 01:05:57;;;;;;;;;;;;;;;6.39;73.19;100914.38;5076841;28;19924;-57
2022/12/21 01:08:23;;;;;;;;;;;;;;;6.35;73.32;100912.78;5077485;28;19952;-57
2022/12/21 01:10:49;;;;;;;;;;;;;;;6.33;73.39;100906.75;5082214;28;19960;-57
2022/12/21 01:13:15;;;;;;;;;;;;;;;6.29;73.71;100915.59;5078700;28;19959;-55
2022/12/21 01:15:41;;;;;;;;;;;;;;;6.30;73.46;100914.69;5081203;28;20073;-57
2022/12/21 01:18:06;;;;;;;;;;;;;;;6.30;73.61;100919.09;5081104;28;19923;-57
2022/12/21 01:20:32;;;;;;;;;;;;;;;6.27;73.67;100914.84;5085201;28;19916;-57
2022/12/21 01:22:57;;;;;;;;;;;;;;;6.30;73.63;100919.09;5078046;28;19916;-56
2022/12/21 01:25:22;;;;;;;;;;;;;;;6.33;73.57;100914.59;5078359;28;20283;-57
2022/12/21 01:27:47;;;;;;;;;;;;;;;6.33;73.39;100901.53;5081637;28;19920;-56
2022/12/21 01:30:13;;;;;;;;;;;;;;;6.33;73.38;100906.75;5078949;28;19929;-56
2022/12/21 01:32:38;;;;;;;;;;;;;;;6.34;73.30;100908.47;5078588;28;20139;-56
2022/12/21 01:35:04;;;;;;;;;;;;;;;6.30;73.61;100904.25;5079054;28;19924;-56
2022/12/21 01:37:29;;;;;;;;;;;;;;;6.32;73.66;100896.38;5083199;28;19921;-57
2022/12/21 01:39:54;;;;;;;;;;;;;;;6.29;73.91;100901.69;5080143;28;19948;-57
2022/12/21 01:42:20;;;;;;;;;;;;;;;6.29;73.64;100906.94;5079088;28;20290;-56
2022/12/21 01:44:48;;;;;;;;;;;;;;;6.29;73.91;100902.53;5083397;28;19925;-56
2022/12/21 01:47:19;;;;;;;;;;;;;;;6.29;73.62;100902.53;5077755;28;19920;-56
2022/12/21 01:49:50;;;;;;;;;;;;;;;6.25;73.88;100895.75;5079543;28;19931;-56
2022/12/21 01:52:15;;;;;;;;;;;;;;;6.29;73.78;100905.16;5077534;28;19923;-56
2022/12/21 01:54:47;;;;;;;;;;;;;;;6.31;73.62;100903.34;5078944;28;19920;-56
2022/12/21 01:57:13;;;;;;;;;;;;;;;6.30;73.68;100898.19;5078690;28;20114;-59
2022/12/21 01:59:41;;;;;;;;;;;;;;;6.28;73.86;100895.59;5063853;28;19943;-55
2022/12/21 02:02:09;;;;;;;;;;;;;;;6.33;73.58;100890.22;5078524;28;19986;-57
2022/12/21 02:04:34;;;;;;;;;;;;;;;6.32;73.87;100886.75;5079052;28;19921;-56
2022/12/21 02:07:00;;;;;;;;;;;;;;;6.36;73.69;100890.09;5077346;28;19916;-57
2022/12/21 02:09:27;;;;;;;;;;;;;;;6.37;73.67;100884.81;5081215;28;20344;-55
2022/12/21 02:11:53;;;;;;;;;;;;;;;6.37;73.65;100884.81;5076543;28;19930;-55
2022/12/21 02:14:18;;;;;;;;;;;;;;;6.36;73.89;100879.63;5077574;28;19924;-55
2022/12/21 02:16:55;;;;;;;;;;;;;;;6.36;73.80;100883.13;5077852;28;19928;-55
2022/12/21 02:19:32;;;;;;;;;;;;;;;6.36;73.87;100877.91;5078004;28;20456;-56
2022/12/21 02:22:12;;;;;;;;;;;;;;;6.36;74.09;100877.91;5075781;28;19916;-57
2022/12/21 02:25:03;;;;;;;;;;;;;;;6.35;73.83;100884.03;5079686;28;20391;-55
2022/12/21 02:27:58;;;;;;;;;;;;;;;6.37;73.94;100884.81;5051593;28;20011;-57
2022/12/21 02:30:29;;;;;;;;;;;;;;;6.39;74.04;100887.38;5081441;28;20015;-54
2022/12/21 02:33:03;;;;;;;;;;;;;;;6.44;74.13;100879.34;5079791;28;19920;-57
2022/12/21 02:35:31;;;;;;;;;;;;;;;6.41;73.93;100880.31;5075182;28;19916;-57
2022/12/21 02:38:15;;;;;;;;;;;;;;;6.39;74.39;100872.56;5080568;28;19920;-58
2022/12/21 02:40:41;;;;;;;;;;;;;;;6.40;74.17;100873.38;5080266;28;19927;-56
2022/12/21 02:46:00;;;;;;;;;;;;;;;6.43;74.08;100867.22;5076599;28;20394;-57
2022/12/21 02:48:39;;;;;;;;;;;;;;;6.44;74.19;100868.88;5084996;28;19916;-57
2022/12/21 02:51:08;;;;;;;;;;;;;;;6.47;74.14;100858.31;5082010;28;19916;-57
2022/12/21 02:53:34;;;;;;;;;;;;;;;6.46;74.12;100862.72;5086997;28;20366;-56
2022/12/21 02:55:59;;;;;;;;;;;;;;;6.49;74.08;100861.72;5079707;28;20414;-57
2022/12/21 02:58:25;;;;;;;;;;;;;;;6.47;74.50;100856.56;5078424;28;19952;-56
2022/12/21 03:00:50;;;;;;;;;;;;;;;6.43;74.70;100854.97;5082624;28;19924;-57
2022/12/21 03:03:50;;;;;;;;;;;;;;;6.41;74.64;100851.56;5077700;28;20015;-59
2022/12/21 03:06:41;;;;;;;;;;;;;;;6.39;74.44;100862.09;5083091;28;19923;-56
2022/12/21 03:09:25;;;;;;;;;;;;;;;6.40;74.80;100862.94;5074767;28;19966;-57
2022/12/21 03:12:13;;;;;;;;;;;;;;;6.42;74.70;100852.44;5074649;28;19968;-57
2022/12/21 03:14:48;;;;;;;;;;;;;;;6.45;74.37;100854.91;5076251;28;19920;-57
2022/12/21 03:17:14;;;;;;;;;;;;;;;6.46;74.86;100857.50;5075372;28;19916;-57
2022/12/21 03:19:58;;;;;;;;;;;;;;;6.44;74.58;100854.06;5085856;28;19969;-59
2022/12/21 03:22:23;;;;;;;;;;;;;;;6.43;74.59;100847.16;5078377;28;19982;-57
2022/12/21 03:24:53;;;;;;;;;;;;;;;6.40;74.96;100848.13;5087587;28;20438;-57
2022/12/21 03:27:21;;;;;;;;;;;;;;;6.43;74.77;100841.91;5077079;28;19916;-58
2022/12/21 03:29:52;;;;;;;;;;;;;;;6.45;74.90;100853.16;5092985;28;19947;-57
2022/12/21 03:32:38;;;;;;;;;;;;;;;6.44;74.86;100845.38;5082258;28;19922;-57
2022/12/21 03:35:05;;;;;;;;;;;;;;;6.42;74.87;100845.44;5086417;28;20398;-57
2022/12/21 03:37:33;;;;;;;;;;;;;;;6.39;75.00;100851.66;5081531;28;20413;-58
2022/12/21 03:40:25;;;;;;;;;;;;;;;6.39;74.98;100845.56;5083222;28;20290;-57
2022/12/21 03:43:13;;;;;;;;;;;;;;;6.37;75.59;100834.28;5076112;28;19971;-58
2022/12/21 03:45:41;;;;;;;;;;;;;;;6.36;75.29;100841.31;5070634;28;20341;-57
2022/12/21 03:48:11;;;;;;;;;;;;;;;6.36;75.67;100840.44;5077489;28;20604;-57
2022/12/21 03:50:39;;;;;;;;;;;;;;;6.36;75.49;100843.03;5081186;28;20375;-57
2022/12/21 03:53:23;;;;;;;;;;;;;;;6.34;75.89;100850.97;5082365;28;19994;-58
2022/12/21 03:55:51;;;;;;;;;;;;;;;6.31;75.84;100845.84;5087394;28;19920;-58
2022/12/21 03:58:16;;;;;;;;;;;;;;;6.33;75.74;100830.97;5088508;28;19960;-58
2022/12/21 04:00:51;;;;;;;;;;;;;;;6.25;76.31;100846.09;5066175;28;19973;-58
2022/12/21 04:03:21;;;;;;;;;;;;;;;6.27;76.17;100839.06;5078434;28;20001;-58
2022/12/21 04:06:07;;;;;;;;;;;;;;;6.24;76.70;100834.78;5084775;28;19958;-58
2022/12/21 04:08:32;;;;;;;;;;;;;;;6.23;76.62;100829.63;5078758;28;20051;-59
2022/12/21 04:10:58;;;;;;;;;;;;;;;6.24;76.83;100836.56;5081125;28;20437;-60
2022/12/21 04:13:23;;;;;;;;;;;;;;;6.25;76.38;100822.56;5083912;28;19920;-58
2022/12/21 04:16:03;;;;;;;;;;;;;;;6.26;76.59;100824.28;5084406;28;19923;-56
2022/12/21 04:21:13;;;;;;;;;;;;;;;6.29;76.43;100829.38;5080770;28;20286;-58
2022/12/21 04:29:06;;;;;;;;;;;;;;;6.29;76.66;100818.91;5078819;28;19928;-56
2022/12/21 04:31:31;;;;;;;;;;;;;;;6.25;76.79;100812.97;5080746;28;20323;-58
2022/12/21 04:33:57;;;;;;;;;;;;;;;6.23;77.08;100819.16;5081158;28;19924;-58
2022/12/21 04:39:06;;;;;;;;;;;;;;;6.20;77.18;100824.50;5080295;28;19961;-57
2022/12/21 04:41:32;;;;;;;;;;;;;;;6.22;77.02;100827.91;5084288;28;20392;-58
2022/12/21 04:43:57;;;;;;;;;;;;;;;6.21;76.78;100820.97;5084630;28;19923;-58
2022/12/21 04:46:22;;;;;;;;;;;;;;;6.21;77.18;100824.44;5089775;28;20030;-58
2022/12/21 04:48:48;;;;;;;;;;;;;;;6.21;77.47;100831.44;5078643;28;19916;-57
2022/12/21 04:51:18;;;;;;;;;;;;;;;6.23;76.95;100819.16;5089329;28;20535;-56
2022/12/21 04:53:43;;;;;;;;;;;;;;;6.22;76.97;100817.47;5078622;28;19931;-56
2022/12/21 04:56:09;;;;;;;;;;;;;;;6.23;77.42;100814.78;5078580;28;20094;-57
2022/12/21 04:58:34;;;;;;;;;;;;;;;6.22;77.33;100807.00;5085768;28;19928;-58
2022/12/21 05:01:02;;;;;;;;;;;;;;;6.23;77.22;100808.72;5080105;28;19997;-61
2022/12/21 05:03:27;;;;;;;;;;;;;;;6.24;77.01;100800.81;5082609;28;19959;-58
2022/12/21 05:05:52;;;;;;;;;;;;;;;6.24;76.91;100805.19;5082187;28;20394;-56
2022/12/21 05:08:18;;;;;;;;;;;;;;;6.25;77.13;100806.91;5075908;28;20299;-57
2022/12/21 05:10:43;;;;;;;;;;;;;;;6.24;77.03;100808.63;5082791;28;19924;-57
2022/12/21 05:13:08;;;;;;;;;;;;;;;6.27;77.08;100805.09;5087281;28;19931;-58
2022/12/21 05:15:37;;;;;;;;;;;;;;;6.28;77.35;100811.97;5084541;28;19927;-58
2022/12/21 05:18:03;;;;;;;;;;;;;;;6.25;77.31;100812.97;5084318;28;19912;-58
2022/12/21 05:20:28;;;;;;;;;;;;;;;6.28;77.12;100818.97;5081460;28;19915;-58
2022/12/21 05:22:53;;;;;;;;;;;;;;;6.28;76.82;100811.16;5080185;28;19924;-58
2022/12/21 05:25:19;;;;;;;;;;;;;;;6.24;76.86;100800.81;5080063;28;19920;-59
2022/12/21 05:27:44;;;;;;;;;;;;;;;6.22;77.23;100804.41;5076440;28;20517;-57
2022/12/21 05:30:09;;;;;;;;;;;;;;;6.20;77.45;100808.81;5080430;28;19934;-56
2022/12/21 05:32:35;;;;;;;;;;;;;;;6.19;77.61;100807.13;5081125;28;20012;-56
2022/12/21 05:35:00;;;;;;;;;;;;;;;6.22;77.57;100801.78;5082371;28;20281;-57
2022/12/21 05:37:28;;;;;;;;;;;;;;;6.22;77.27;100801.78;5084430;28;19916;-57
2022/12/21 05:39:54;;;;;;;;;;;;;;;6.20;77.65;100801.81;5082037;28;19912;-56
2022/12/21 05:42:20;;;;;;;;;;;;;;;6.19;77.80;100807.13;5077864;28;19920;-58
2022/12/21 05:44:45;;;;;;;;;;;;;;;6.18;77.54;100810.63;5079271;28;20017;-56
2022/12/21 05:47:10;;;;;;;;;;;;;;;6.17;78.03;100809.81;5081900;28;19922;-56
2022/12/21 05:49:36;;;;;;;;;;;;;;;6.20;77.42;100808.81;5083055;28;20358;-56
2022/12/21 05:52:01;;;;;;;;;;;;;;;6.18;77.66;100814.13;5067088;28;19923;-56
2022/12/21 05:54:27;;;;;;;;;;;;;;;6.19;77.53;100812.34;5080110;28;19932;-56
2022/12/21 05:56:52;;;;;;;;;;;;;;;6.21;77.71;100813.97;5076742;28;20265;-57
2022/12/21 05:59:17;;;;;;;;;;;;;;;6.22;77.93;100820.06;5080791;28;19920;-57
2022/12/21 06:01:42;;;;;;;;;;;;;;;6.23;77.64;100816.56;5080303;28;20008;-56
2022/12/21 06:04:08;;;;;;;;;;;;;;;6.24;77.62;100826.94;5078293;28;19923;-58
2022/12/21 06:06:33;;;;;;;;;;;;;;;6.27;77.69;100819.91;5083025;28;19924;-56
2022/12/21 06:08:58;;;;;;;;;;;;;;;6.25;77.66;100814.75;5082476;28;20143;-56
2022/12/21 06:11:24;;;;;;;;;;;;;;;6.25;77.48;100822.56;5068997;28;20391;-56
2022/12/21 06:13:50;;;;;;;;;;;;;;;6.24;77.80;100823.47;5078640;28;19973;-56
2022/12/21 06:16:20;;;;;;;;;;;;;;;6.22;78.03;100830.53;5082387;28;20038;-57
2022/12/21 06:18:45;;;;;;;;;;;;;;;6.23;78.20;100830.47;5071322;28;19925;-56
2022/12/21 06:21:12;;;;;;;;;;;;;;;6.20;78.14;100830.56;5072844;28;19917;-56
2022/12/21 06:23:38;;;;;;;;;;;;;;;6.20;78.29;100827.94;5078553;28;19920;-56
2022/12/21 06:26:04;;;;;;;;;;;;;;;6.22;78.19;100830.53;5080008;28;19924;-56
2022/12/21 06:28:30;;;;;;;;;;;;;;;6.23;78.16;100832.22;5084196;22;19938;-58
2022/12/21 06:31:01;;;;;;;;;;;;;;;6.24;78.07;100831.31;5061883;28;19924;-57
2022/12/21 06:33:27;;;;;;;;;;;;;;;6.24;78.29;100831.31;5058449;28;20303;-60
2022/12/21 06:35:56;;;;;;;;;;;;;;;6.24;78.26;100832.16;5045560;28;20045;-61
2022/12/21 06:38:22;;;;;;;;;;;;;;;6.24;78.29;100824.31;5064341;28;19930;-61
2022/12/21 06:40:57;;;;;;;;;;;;;;;6.23;78.69;100824.41;5065898;28;19920;-59
2022/12/21 06:43:23;;;;;;;;;;;;;;;6.27;78.59;100836.44;5061968;28;19923;-60
2022/12/21 06:45:52;;;;;;;;;;;;;;;6.29;78.54;100834.59;5034683;28;19921;-60
2022/12/21 06:48:17;;;;;;;;;;;;;;;6.29;78.31;100829.38;5069861;28;19969;-59
2022/12/21 06:50:43;;;;;;;;;;;;;;;6.29;78.19;100842.44;5069737;28;19916;-62
2022/12/21 06:53:08;;;;;;;;;;;;;;;6.30;78.38;100831.06;5071356;28;20398;-57
2022/12/21 06:55:33;;;;;;;;;;;;;;;6.31;78.27;100842.41;5068393;28;19921;-59
2022/12/21 06:57:59;;;;;;;;;;;;;;;6.32;78.27;100833.66;5065913;28;20011;-57
2022/12/21 07:00:24;;;;;;;;;;;;;;;6.32;78.36;100831.88;5068258;28;20276;-58
2022/12/21 07:02:49;;;;;;;;;;;;;;;6.30;78.62;100825.00;5049563;28;19916;-63
2022/12/21 07:05:15;;;;;;;;;;;;;;;6.31;79.11;100832.78;5053402;28;19973;-61
2022/12/21 07:07:40;;;;;;;;;;;;;;;6.29;78.83;100838.97;5070388;28;19920;-57
2022/12/21 07:10:06;;;;;;;;;;;;;;;6.30;78.75;100831.06;5070441;28;19923;-57
2022/12/21 07:12:31;;;;;;;;;;;;;;;6.31;79.22;100827.56;5068981;28;19919;-63
2022/12/21 07:14:56;;;;;;;;;;;;;;;6.33;79.03;100830.97;5048424;28;20003;-58
2022/12/21 07:17:21;;;;;;;;;;;;;;;6.38;78.87;100836.00;5074633;28;19959;-58
2022/12/21 07:19:47;;;;;;;;;;;;;;;6.39;78.85;100835.97;5071287;28;19923;-57
2022/12/21 07:22:12;;;;;;;;;;;;;;;6.43;78.76;100846.31;5071652;28;20287;-61
2022/12/21 07:24:37;;;;;;;;;;;;;;;6.45;78.42;100839.22;5064429;28;19916;-61
2022/12/21 07:27:03;;;;;;;;;;;;;;;6.49;78.50;100848.66;5070613;28;20371;-59
2022/12/21 07:29:28;;;;;;;;;;;;;;;6.49;78.72;100846.06;5069737;28;19923;-62
2022/12/21 07:31:53;;;;;;;;;;;;;;;6.49;78.66;100840.81;5067016;28;20007;-60
2022/12/21 07:34:19;;;;;;;;;;;;;;;6.52;78.41;100840.72;5071241;28;20577;-59
2022/12/21 07:36:44;;;;;;;;;;;;;;;6.54;78.74;100838.88;5059198;28;19928;-59
2022/12/21 07:39:09;;;;;;;;;;;;;;;6.54;78.38;100842.34;5071928;28;19921;-60
2022/12/21 07:41:34;;;;;;;;;;;;;;;6.56;78.60;100842.28;5054090;28;20003;-61
2022/12/21 07:44:00;;;;;;;;;;;;;;;6.55;78.70;100845.81;5072227;28;20417;-61
2022/12/21 07:46:25;;;;;;;;;;;;;;;6.53;78.52;100847.63;5071376;28;19932;-61
2022/12/21 07:48:52;;;;;;;;;;;;;;;6.51;78.93;100846.84;5073074;28;19924;-58
2022/12/21 07:51:17;;;;;;;;;;;;;;;6.47;79.00;100842.63;5071662;28;19943;-61
2022/12/21 07:53:42;;;;;;;;;;;;;;;6.45;79.27;100839.22;5073344;28;19967;-61
2022/12/21 07:56:12;;;;;;;;;;;;;;;6.47;79.13;100838.28;5067914;28;19927;-61
2022/12/21 07:58:37;;;;;;;;;;;;;;;6.49;79.40;100840.81;5072808;28;20334;-59
2022/12/21 08:01:04;;;;;;;;;;;;;;;6.51;78.92;100839.00;5073923;28;20450;-61
2022/12/21 08:03:30;;;;;;;;;;;;;;;6.54;78.94;100849.34;5073311;28;19916;-59
2022/12/21 08:05:55;;;;;;;;;;;;;;;6.56;79.08;100850.97;5073382;28;19974;-61
2022/12/21 08:08:20;;;;;;;;;;;;;;;6.59;78.71;100849.16;5076037;28;19932;-60
2022/12/21 08:10:46;;;;;;;;;;;;;;;6.61;79.08;100845.56;5070172;28;20288;-62
2022/12/21 08:13:11;;;;;;;;;;;;;;;6.64;78.81;100855.91;5075647;28;19977;-61
2022/12/21 08:15:36;;;;;;;;;;;;;;;6.65;78.66;100857.63;5054257;28;19927;-62
2022/12/21 08:18:02;;;;;;;;;;;;;;;6.66;78.74;100853.22;5068449;28;20414;-61
2022/12/21 08:20:27;;;;;;;;;;;;;;;6.69;78.44;100853.09;5072892;28;19956;-63
2022/12/21 08:22:52;;;;;;;;;;;;;;;6.71;78.41;100849.53;5071461;28;19954;-62
2022/12/21 08:25:18;;;;;;;;;;;;;;;6.75;78.53;100857.22;5075714;28;20303;-60
2022/12/21 08:27:43;;;;;;;;;;;;;;;6.77;78.67;100855.41;5070937;28;20407;-58
2022/12/21 08:30:08;;;;;;;;;;;;;;;6.75;78.70;100863.34;5069241;28;19917;-59
2022/12/21 08:32:34;;;;;;;;;;;;;;;6.76;78.35;100856.31;5072336;28;19996;-60
2022/12/21 08:34:59;;;;;;;;;;;;;;;6.76;78.57;100870.28;5080781;28;19920;-61
2022/12/21 08:37:24;;;;;;;;;;;;;;;6.77;78.77;100877.22;5056122;28;19925;-62
2022/12/21 08:39:49;;;;;;;;;;;;;;;6.78;78.57;100878.03;5072210;28;19971;-61
2022/12/21 08:42:15;;;;;;;;;;;;;;;6.78;78.98;100872.81;5077699;28;19917;-61
2022/12/21 08:44:40;;;;;;;;;;;;;;;6.74;78.92;100872.09;5068843;28;19955;-61
2022/12/21 08:47:06;;;;;;;;;;;;;;;6.76;78.94;100870.28;5047801;28;19948;-61
2022/12/21 08:49:32;;;;;;;;;;;;;;;6.77;79.11;100865.88;5047751;28;19974;-62
2022/12/21 08:51:57;;;;;;;;;;;;;;;6.77;79.05;100866.75;5051267;28;19971;-61
2022/12/21 08:54:22;;;;;;;;;;;;;;;6.78;79.23;100872.81;5073110;28;20019;-62
2022/12/21 08:56:48;;;;;;;;;;;;;;;6.80;78.99;100871.00;5076300;28;19916;-61
2022/12/21 08:59:13;;;;;;;;;;;;;;;6.80;78.85;100866.63;5070284;28;19917;-61
2022/12/21 09:01:38;;;;;;;;;;;;;;;6.80;79.38;100877.09;5074466;28;20333;-58
2022/12/21 09:04:04;;;;;;;;;;;;;;;6.80;78.85;100874.47;5069174;28;19968;-62
2022/12/21 09:06:29;;;;;;;;;;;;;;;6.80;79.25;100865.75;5074425;28;19921;-61
2022/12/21 09:08:55;;;;;;;;;;;;;;;6.81;79.46;100872.69;5067606;28;20670;-61
2022/12/21 09:11:22;;;;;;;;;;;;;;;6.84;79.36;100883.03;5075393;28;19921;-62
2022/12/21 09:13:47;;;;;;;;;;;;;;;6.83;79.30;100878.72;5054379;28;19920;-61
2022/12/21 09:16:18;;;;;;;;;;;;;;;6.83;79.65;100876.94;5074124;28;19977;-59
2022/12/21 09:18:43;;;;;;;;;;;;;;;6.85;79.46;100882.13;5072053;28;19994;-59
2022/12/21 09:21:09;;;;;;;;;;;;;;;6.88;79.83;100883.75;5068705;28;19974;-58
2022/12/21 09:23:35;;;;;;;;;;;;;;;6.92;79.70;100890.59;5068508;28;19951;-61
2022/12/21 09:26:01;;;;;;;;;;;;;;;6.94;79.69;100884.38;5067621;28;19943;-60
2022/12/21 09:28:26;;;;;;;;;;;;;;;6.99;79.70;100887.66;5066494;28;19920;-61
2022/12/21 09:30:52;;;;;;;;;;;;;;;7.05;79.63;100896.16;5054456;28;19920;-61
2022/12/21 09:33:17;;;;;;;;;;;;;;;7.09;79.40;100902.97;5074038;28;20290;-61
2022/12/21 09:35:43;;;;;;;;;;;;;;;7.11;79.70;100893.31;5079047;28;19928;-59
2022/12/21 09:38:08;;;;;;;;;;;;;;;7.12;79.92;100895.84;5073714;28;19951;-61
2022/12/21 09:40:33;;;;;;;;;;;;;;;7.18;80.12;100886.91;5071216;28;19920;-62
2022/12/21 09:43:08;;;;;;;;;;;;;;;7.22;79.67;100885.84;5069084;28;19942;-61
2022/12/21 09:45:51;;;;;;;;;;;;;;;7.26;79.69;100878.75;5069776;28;19970;-58
2022/12/21 09:48:24;;;;;;;;;;;;;;;7.27;79.87;100865.59;5063282;28;19925;-61
2022/12/21 09:51:01;;;;;;;;;;;;;;;7.27;79.89;100869.94;5041407;28;20387;-60
2022/12/21 09:53:46;;;;;;;;;;;;;;;7.30;79.84;100867.22;5072257;28;20414;-61
2022/12/21 09:56:15;;;;;;;;;;;;;;;7.31;79.96;100876.75;5066393;28;19921;-59
2022/12/21 09:58:42;;;;;;;;;;;;;;;7.29;79.88;100881.22;5063887;28;19930;-61
2022/12/21 10:01:19;;;;;;;;;;;;;;;7.29;79.76;100884.69;5076095;28;19920;-60
2022/12/21 10:03:45;;;;;;;;;;;;;;;7.27;79.89;100883.91;5069804;28;19920;-61
2022/12/21 10:06:23;;;;;;;;;;;;;;;7.27;79.59;100881.28;5069582;28;19923;-58
2022/12/21 10:08:55;;;;;;;;;;;;;;;7.25;80.03;100884.91;5070995;28;19978;-59
2022/12/21 10:11:39;;;;;;;;;;;;;;;7.22;80.14;100880.63;5067649;28;20316;-59
2022/12/21 10:14:17;;;;;;;;;;;;;;;7.16;80.70;100873.88;5066043;28;19966;-59
2022/12/21 10:16:48;;;;;;;;;;;;;;;7.20;80.47;100877.22;5069631;28;19916;-60
2022/12/21 10:19:19;;;;;;;;;;;;;;;7.23;80.56;100879.72;5071891;28;20011;-62
2022/12/21 10:21:50;;;;;;;;;;;;;;;7.25;80.23;100883.13;5071347;28;20409;-62
2022/12/21 10:24:44;;;;;;;;;;;;;;;7.25;80.37;100874.44;5062359;28;19916;-62
2022/12/21 10:27:14;;;;;;;;;;;;;;;7.25;80.65;100869.19;4976350;28;19925;-61
2022/12/21 10:29:42;;;;;;;;;;;;;;;7.26;80.46;100868.28;5073352;28;19912;-61
2022/12/21 10:32:12;;;;;;;;;;;;;;;7.26;80.92;100869.13;5071723;28;20311;-60
2022/12/21 10:34:43;;;;;;;;;;;;;;;7.29;80.63;100873.34;5070314;28;19935;-60
2022/12/21 10:37:12;;;;;;;;;;;;;;;7.30;80.60;100869.81;5066036;28;19927;-61
2022/12/21 10:39:38;;;;;;;;;;;;;;;7.31;80.64;100872.41;5067779;28;19920;-60
2022/12/21 10:42:15;;;;;;;;;;;;;;;7.32;80.48;100871.47;5067265;28;20460;-62
2022/12/21 10:44:41;;;;;;;;;;;;;;;7.32;80.54;100868.00;5069629;28;19916;-58
2022/12/21 10:47:11;;;;;;;;;;;;;;;7.33;80.76;100864.47;5063673;28;20015;-60
2022/12/21 10:49:37;;;;;;;;;;;;;;;7.33;80.67;100862.69;5053122;28;19983;-61
2022/12/21 10:52:22;;;;;;;;;;;;;;;7.32;80.67;100862.75;5071047;28;19924;-62
2022/12/21 10:54:48;;;;;;;;;;;;;;;7.30;80.68;100860.22;5067225;28;19971;-61
2022/12/21 10:57:13;;;;;;;;;;;;;;;7.31;80.85;100856.69;5066955;28;19947;-58
2022/12/21 10:59:40;;;;;;;;;;;;;;;7.30;80.96;100857.59;5071617;28;19928;-62
2022/12/21 11:02:06;;;;;;;;;;;;;;;7.31;81.34;100851.47;5067817;28;19924;-61
2022/12/21 11:04:32;;;;;;;;;;;;;;;7.31;81.33;100853.22;5070902;28;19912;-61
2022/12/21 11:07:16;;;;;;;;;;;;;;;7.25;81.79;100846.47;5068708;28;19924;-60
2022/12/21 11:09:41;;;;;;;;;;;;;;;7.20;82.06;100837.94;5062498;28;19995;-58
2022/12/21 11:12:20;;;;;;;;;;;;;;;7.22;81.81;100830.88;5073420;28;19954;-61
2022/12/21 11:14:45;;;;;;;;;;;;;;;7.21;81.95;100834.41;5068415;28;19975;-61
2022/12/21 11:17:16;;;;;;;;;;;;;;;7.23;82.42;100831.75;5070716;28;19916;-60
2022/12/21 11:19:41;;;;;;;;;;;;;;;7.28;82.28;100838.50;5072941;28;19913;-62
2022/12/21 11:22:07;;;;;;;;;;;;;;;7.27;82.50;100831.56;5072094;28;19997;-59
2022/12/21 11:24:43;;;;;;;;;;;;;;;7.30;82.22;100830.56;5065240;28;19968;-60
2022/12/21 11:27:08;;;;;;;;;;;;;;;7.30;82.28;100828.81;5052728;28;19962;-60
2022/12/21 11:29:53;;;;;;;;;;;;;;;7.31;82.58;100837.50;5071068;28;20360;-61
2022/12/21 11:32:21;;;;;;;;;;;;;;;7.35;82.21;100835.59;5068506;28;19947;-61
2022/12/21 11:34:49;;;;;;;;;;;;;;;7.38;82.18;100838.97;5072004;28;19924;-59
2022/12/21 11:37:22;;;;;;;;;;;;;;;7.37;82.18;100833.78;5069783;28;20007;-58
2022/12/21 11:39:47;;;;;;;;;;;;;;;7.36;82.47;100832.94;5073106;28;20400;-61
2022/12/21 11:42:31;;;;;;;;;;;;;;;7.34;82.43;100829.53;5073933;28;19983;-62
2022/12/21 11:45:15;;;;;;;;;;;;;;;7.30;82.51;100826.19;5077815;28;19916;-60
2022/12/21 11:48:00;;;;;;;;;;;;;;;7.35;82.17;100827.75;5073809;28;19916;-61
2022/12/21 11:50:28;;;;;;;;;;;;;;;7.32;82.65;100832.22;5073702;28;20015;-59
2022/12/21 11:53:08;;;;;;;;;;;;;;;7.31;82.68;100825.28;5067513;28;19916;-61
2022/12/21 11:55:39;;;;;;;;;;;;;;;7.33;82.63;100831.28;5069457;28;19923;-58
2022/12/21 11:58:16;;;;;;;;;;;;;;;7.33;82.58;100823.41;5056596;28;19923;-61
2022/12/21 12:00:50;;;;;;;;;;;;;;;7.33;82.65;100818.19;5051644;28;19920;-58
2022/12/21 12:03:15;;;;;;;;;;;;;;;7.32;82.29;100816.50;5073782;28;19920;-59
2022/12/21 12:05:59;;;;;;;;;;;;;;;7.33;82.52;100812.94;5078192;28;19920;-59
2022/12/21 12:08:52;;;;;;;;;;;;;;;7.36;82.66;100811.13;5069737;28;20469;-59
2022/12/21 12:11:29;;;;;;;;;;;;;;;7.35;82.72;100801.56;5076876;28;19912;-61
2022/12/21 12:14:04;;;;;;;;;;;;;;;7.36;82.66;100806.75;5072960;28;19939;-59
2022/12/21 12:16:47;;;;;;;;;;;;;;;7.37;82.31;100804.97;5073392;28;19918;-59
2022/12/21 12:19:28;;;;;;;;;;;;;;;7.38;82.64;100801.44;5076111;28;19917;-61
2022/12/21 12:21:56;;;;;;;;;;;;;;;7.39;82.76;100796.16;5071756;28;20413;-61
2022/12/21 12:24:24;;;;;;;;;;;;;;;7.41;82.61;100798.69;5071794;28;19916;-61
2022/12/21 12:27:02;;;;;;;;;;;;;;;7.45;82.56;100805.50;5067168;28;20011;-59
2022/12/21 12:29:30;;;;;;;;;;;;;;;7.44;82.66;100803.81;5077656;28;20371;-59
2022/12/21 12:32:11;;;;;;;;;;;;;;;7.44;82.66;100794.16;5052705;28;19916;-62
2022/12/21 12:34:49;;;;;;;;;;;;;;;7.48;82.40;100805.38;5072120;28;19962;-59
2022/12/21 12:37:23;;;;;;;;;;;;;;;7.47;82.46;100803.69;5049997;28;19966;-60
2022/12/21 12:39:48;;;;;;;;;;;;;;;7.48;82.34;100800.97;5072102;28;19919;-60
2022/12/21 12:42:23;;;;;;;;;;;;;;;7.52;82.32;100793.81;5070918;28;20014;-61
2022/12/21 12:44:49;;;;;;;;;;;;;;;7.50;82.29;100793.03;5058030;28;19912;-62
2022/12/21 12:47:14;;;;;;;;;;;;;;;7.53;82.42;100794.69;5066318;28;19916;-61
2022/12/21 12:49:45;;;;;;;;;;;;;;;7.54;82.15;100793.78;5070603;28;19998;-58
2022/12/21 12:52:22;;;;;;;;;;;;;;;7.56;82.07;100786.72;5068702;28;19963;-60
2022/12/21 12:55:08;;;;;;;;;;;;;;;7.57;82.14;100784.00;5071562;28;19924;-61
2022/12/21 12:57:45;;;;;;;;;;;;;;;7.56;82.30;100784.94;5020233;28;19991;-59
2022/12/21 13:00:12;;;;;;;;;;;;;;;7.54;82.18;100792.00;5069129;28;19916;-58
2022/12/21 13:02:40;;;;;;;;;;;;;;;7.51;82.04;100794.75;5066309;28;20470;-58
2022/12/21 13:05:08;;;;;;;;;;;;;;;7.51;82.09;100788.66;5059760;28;19975;-59
2022/12/21 13:07:36;;;;;;;;;;;;;;;7.51;82.16;100791.28;5067082;28;20071;-58
2022/12/21 13:10:07;;;;;;;;;;;;;;;7.52;82.15;100795.63;5075300;28;19939;-59